createdAt,value
2022-07-29T00:02:27.239Z,22.50
2022-07-29T00:04:54.338Z,22.50
2022-07-29T00:07:21.535Z,22.50
2022-07-29T00:09:51.541Z,22.50
2022-07-29T00:12:21.483Z,22.40
2022-07-29T00:14:56.001Z,22.40
2022-07-29T00:17:23.865Z,22.50
2022-07-29T00:19:50.927Z,22.40
2022-07-29T00:22:17.851Z,22.40
2022-07-29T00:24:44.839Z,22.50
2022-07-29T00:27:11.562Z,22.50
2022-07-29T00:29:38.527Z,22.50
2022-07-29T00:32:05.601Z,22.50
2022-07-29T00:34:51.217Z,22.50
2022-07-29T00:37:17.954Z,22.50
2022-07-29T00:39:44.878Z,22.60
2022-07-29T00:42:11.839Z,22.60
2022-07-29T00:44:40.292Z,22.60
2022-07-29T00:47:08.311Z,22.60
2022-07-29T00:49:35.725Z,22.60
2022-07-29T00:52:03.841Z,22.60
2022-07-29T00:54:31.107Z,22.60
2022-07-29T00:57:01.953Z,22.70
2022-07-29T00:59:35.058Z,22.60
2022-07-29T01:02:04.000Z,22.60
2022-07-29T01:04:31.982Z,22.70
2022-07-29T01:06:59.688Z,22.70
2022-07-29T01:09:35.041Z,22.70
2022-07-29T01:12:16.039Z,22.70
2022-07-29T01:14:43.591Z,22.70
2022-07-29T01:17:17.228Z,22.70
2022-07-29T01:19:53.338Z,22.70
2022-07-29T01:22:29.318Z,22.70
2022-07-29T01:25:04.172Z,22.70
2022-07-29T01:27:51.949Z,22.70
2022-07-29T01:30:19.322Z,22.70
2022-07-29T01:32:53.361Z,22.70
2022-07-29T01:35:42.810Z,22.70
2022-07-29T01:38:29.414Z,22.70
2022-07-29T01:41:06.325Z,22.60
2022-07-29T01:43:41.112Z,22.70
2022-07-29T01:46:14.562Z,22.60
2022-07-29T01:48:43.813Z,22.70
2022-07-29T01:51:19.865Z,22.60
2022-07-29T01:54:00.206Z,22.60
2022-07-29T01:56:31.793Z,22.60
2022-07-29T01:58:59.410Z,22.60
2022-07-29T02:01:28.242Z,22.60
2022-07-29T02:03:56.026Z,22.50
2022-07-29T02:06:24.149Z,22.50
2022-07-29T02:08:53.695Z,22.50
2022-07-29T02:11:20.538Z,22.50
2022-07-29T02:13:48.672Z,22.50
2022-07-29T02:16:17.412Z,22.40
2022-07-29T02:18:46.702Z,22.40
2022-07-29T02:21:17.014Z,22.40
2022-07-29T02:23:50.908Z,22.40
2022-07-29T02:26:20.344Z,22.40
2022-07-29T02:28:49.355Z,22.40
2022-07-29T02:31:19.892Z,22.40
2022-07-29T02:33:49.041Z,22.40
2022-07-29T02:36:17.266Z,22.30
2022-07-29T02:38:54.573Z,22.30
2022-07-29T02:41:27.076Z,22.40
2022-07-29T02:44:05.143Z,22.30
2022-07-29T02:46:37.442Z,22.30
2022-07-29T02:49:48.006Z,22.30
2022-07-29T02:52:22.886Z,22.30
2022-07-29T02:55:27.921Z,22.20
2022-07-29T02:58:16.569Z,22.20
2022-07-29T03:00:45.476Z,22.20
2022-07-29T03:03:14.265Z,22.10
2022-07-29T03:05:41.261Z,22.10
2022-07-29T03:08:11.257Z,22.10
2022-07-29T03:10:44.729Z,22.00
2022-07-29T03:13:13.285Z,22.00
2022-07-29T03:15:40.628Z,22.00
2022-07-29T03:18:07.945Z,21.90
2022-07-29T03:20:35.582Z,21.90
2022-07-29T03:23:02.403Z,21.90
2022-07-29T03:25:29.329Z,21.80
2022-07-29T03:27:56.293Z,21.80
2022-07-29T03:30:23.926Z,21.80
2022-07-29T03:32:52.466Z,21.70
2022-07-29T03:35:20.552Z,21.70
2022-07-29T03:37:47.538Z,21.60
2022-07-29T03:40:22.895Z,21.60
2022-07-29T03:42:52.372Z,21.60
2022-07-29T03:45:20.603Z,21.50
2022-07-29T03:47:57.071Z,21.50
2022-07-29T03:50:27.417Z,21.40
2022-07-29T03:52:54.246Z,21.40
2022-07-29T03:55:21.265Z,21.40
2022-07-29T03:57:48.975Z,21.30
2022-07-29T04:00:16.988Z,21.30
2022-07-29T04:02:49.118Z,21.20
2022-07-29T04:05:17.009Z,21.10
2022-07-29T04:07:48.277Z,21.10
2022-07-29T04:10:16.778Z,21.00
2022-07-29T04:12:43.738Z,21.00
2022-07-29T04:15:11.253Z,20.90
2022-07-29T04:17:38.759Z,20.90
2022-07-29T04:20:06.341Z,20.90
2022-07-29T04:22:33.341Z,20.80
2022-07-29T04:25:04.029Z,20.70
2022-07-29T04:27:31.499Z,20.70
2022-07-29T04:29:58.533Z,20.70
2022-07-29T04:32:25.753Z,20.70
2022-07-29T04:34:52.537Z,20.70
2022-07-29T04:37:19.596Z,20.60
2022-07-29T04:39:46.561Z,20.60
2022-07-29T04:42:13.392Z,20.60
2022-07-29T04:44:42.956Z,20.50
2022-07-29T04:47:10.510Z,20.50
2022-07-29T04:49:40.424Z,20.50
2022-07-29T04:52:07.691Z,20.40
2022-07-29T04:54:34.499Z,20.50
2022-07-29T04:57:01.375Z,20.40
2022-07-29T04:59:28.137Z,20.50
2022-07-29T05:01:55.073Z,20.50
2022-07-29T05:04:21.976Z,20.50
2022-07-29T05:06:49.506Z,20.60
2022-07-29T05:09:16.328Z,20.60
2022-07-29T05:11:43.293Z,20.60
2022-07-29T05:14:10.037Z,20.70
2022-07-29T05:16:36.784Z,20.70
2022-07-29T05:19:03.890Z,20.70
2022-07-29T05:21:30.576Z,20.70
2022-07-29T05:23:57.562Z,20.70
2022-07-29T05:26:24.425Z,20.70
2022-07-29T05:28:51.661Z,20.70
2022-07-29T05:31:18.491Z,20.70
2022-07-29T05:33:45.460Z,20.70
2022-07-29T05:36:12.618Z,20.70
2022-07-29T05:38:39.336Z,20.70
2022-07-29T05:41:06.498Z,20.70
2022-07-29T05:43:33.784Z,20.70
2022-07-29T05:46:01.043Z,20.80
2022-07-29T05:48:28.305Z,20.80
2022-07-29T05:50:55.786Z,20.90
2022-07-29T05:53:22.911Z,20.90
2022-07-29T05:55:50.403Z,21.00
2022-07-29T05:58:17.542Z,21.00
2022-07-29T06:00:44.361Z,21.10
2022-07-29T06:03:11.177Z,21.20
2022-07-29T06:05:37.865Z,21.30
2022-07-29T06:08:07.938Z,21.40
2022-07-29T06:10:36.595Z,21.40
2022-07-29T06:13:03.455Z,21.50
2022-07-29T06:15:30.229Z,21.60
2022-07-29T06:18:00.524Z,21.70
2022-07-29T06:20:32.250Z,21.80
2022-07-29T06:23:00.280Z,21.90
2022-07-29T06:25:29.948Z,21.90
2022-07-29T06:27:56.905Z,22.00
2022-07-29T06:30:23.906Z,22.00
2022-07-29T06:32:50.613Z,22.10
2022-07-29T06:35:38.312Z,22.20
2022-07-29T06:38:08.430Z,22.30
2022-07-29T06:41:00.947Z,22.30
2022-07-29T06:43:50.456Z,22.40
2022-07-29T06:46:21.011Z,22.60
2022-07-29T06:48:48.721Z,22.70
2022-07-29T06:51:15.846Z,22.80
2022-07-29T06:53:58.093Z,22.80
2022-07-29T06:56:27.279Z,22.90
2022-07-29T06:58:54.377Z,23.10
2022-07-29T07:01:21.175Z,23.20
2022-07-29T07:03:48.477Z,23.30
2022-07-29T07:06:15.448Z,23.40
2022-07-29T07:08:42.159Z,23.50
2022-07-29T07:11:09.649Z,23.70
2022-07-29T07:13:36.594Z,23.80
2022-07-29T07:16:04.871Z,23.90
2022-07-29T07:18:31.982Z,24.00
2022-07-29T07:20:58.962Z,24.10
2022-07-29T07:23:25.967Z,24.20
2022-07-29T07:25:52.795Z,24.30
2022-07-29T07:28:24.646Z,24.40
2022-07-29T07:30:52.774Z,24.50
2022-07-29T07:33:19.860Z,24.60
2022-07-29T07:35:46.965Z,24.70
2022-07-29T07:38:13.974Z,24.80
2022-07-29T07:40:41.827Z,24.90
2022-07-29T07:43:08.726Z,25.00
2022-07-29T07:45:38.116Z,25.00
2022-07-29T07:48:05.782Z,25.10
2022-07-29T07:50:32.939Z,25.20
2022-07-29T07:53:00.359Z,25.30
2022-07-29T07:55:27.277Z,25.30
2022-07-29T07:57:54.946Z,25.40
2022-07-29T08:00:23.000Z,25.40
2022-07-29T08:02:50.850Z,25.50
2022-07-29T08:05:18.118Z,25.50
2022-07-29T08:07:48.048Z,25.60
2022-07-29T08:10:36.501Z,25.60
2022-07-29T08:13:05.583Z,25.60
2022-07-29T08:15:32.365Z,25.70
2022-07-29T08:17:59.616Z,25.80
2022-07-29T08:20:26.576Z,25.90
2022-07-29T08:22:54.398Z,26.10
2022-07-29T08:25:21.523Z,26.20
2022-07-29T08:27:49.035Z,26.30
2022-07-29T08:30:16.025Z,26.40
2022-07-29T08:32:53.560Z,26.40
2022-07-29T08:35:22.983Z,26.50
2022-07-29T08:37:50.132Z,26.70
2022-07-29T08:40:17.248Z,26.70
2022-07-29T08:42:44.426Z,26.80
2022-07-29T08:45:11.455Z,26.90
2022-07-29T08:47:42.965Z,27.00
2022-07-29T08:50:10.654Z,27.10
2022-07-29T08:52:39.410Z,27.20
2022-07-29T08:55:08.399Z,27.30
2022-07-29T08:57:37.132Z,27.30
2022-07-29T09:00:11.356Z,27.40
2022-07-29T09:02:48.725Z,27.60
2022-07-29T09:05:15.986Z,27.80
2022-07-29T09:07:44.252Z,28.10
2022-07-29T09:10:11.510Z,28.40
2022-07-29T09:12:38.809Z,28.80
2022-07-29T09:15:06.571Z,29.30
2022-07-29T09:17:47.512Z,29.80
2022-07-29T09:20:18.428Z,30.60
2022-07-29T09:22:49.962Z,31.20
2022-07-29T09:25:33.686Z,31.90
2022-07-29T09:28:08.034Z,32.80
2022-07-29T09:30:35.150Z,33.40
2022-07-29T09:33:04.049Z,34.00
2022-07-29T09:35:32.147Z,34.40
2022-07-29T09:38:10.451Z,34.80
2022-07-29T09:40:37.298Z,35.10
2022-07-29T09:43:14.488Z,35.40
2022-07-29T09:45:41.633Z,35.80
2022-07-29T09:48:16.702Z,36.00
2022-07-29T09:50:45.248Z,36.30
2022-07-29T09:53:12.442Z,36.50
2022-07-29T09:55:52.364Z,36.70
2022-07-29T09:58:23.548Z,37.10
2022-07-29T10:00:51.982Z,37.40
2022-07-29T10:03:18.882Z,37.60
2022-07-29T10:05:46.962Z,37.80
2022-07-29T10:08:14.307Z,37.90
2022-07-29T10:10:43.107Z,38.00
2022-07-29T10:13:16.168Z,38.10
2022-07-29T10:15:46.087Z,38.20
2022-07-29T10:18:14.918Z,38.40
2022-07-29T10:20:41.899Z,38.40
2022-07-29T10:23:10.566Z,38.40
2022-07-29T10:25:37.268Z,38.30
2022-07-29T10:28:06.164Z,38.10
2022-07-29T10:30:33.517Z,37.90
2022-07-29T10:33:27.776Z,37.70
2022-07-29T10:36:13.163Z,37.60
2022-07-29T10:38:53.849Z,37.70
2022-07-29T10:41:44.681Z,37.90
2022-07-29T10:44:19.402Z,38.10
2022-07-29T10:46:47.693Z,38.30
2022-07-29T10:49:16.329Z,38.50
2022-07-29T10:52:10.419Z,38.60
2022-07-29T10:54:39.693Z,38.80
2022-07-29T10:57:54.031Z,38.80
2022-07-29T11:00:16.918Z,38.90
2022-07-29T11:02:52.407Z,38.90
2022-07-29T11:05:20.597Z,39.00
2022-07-29T11:11:29.777Z,39.30
2022-07-29T11:13:57.254Z,39.50
2022-07-29T11:16:24.905Z,39.70
2022-07-29T11:19:14.399Z,39.90
2022-07-29T11:22:05.593Z,40.20
2022-07-29T11:24:34.771Z,40.40
2022-07-29T11:27:18.070Z,40.50
2022-07-29T11:30:04.261Z,40.50
2022-07-29T11:32:40.113Z,40.60
2022-07-29T11:35:36.810Z,40.70
2022-07-29T11:38:23.832Z,40.90
2022-07-29T11:41:20.866Z,41.10
2022-07-29T11:43:47.835Z,41.20
2022-07-29T11:46:36.396Z,41.20
2022-07-29T11:49:04.781Z,41.20
2022-07-29T11:51:38.050Z,41.30
2022-07-29T11:54:18.598Z,41.40
2022-07-29T11:56:54.894Z,41.50
2022-07-29T11:59:22.646Z,41.60
2022-07-29T12:02:18.418Z,41.70
2022-07-29T12:04:55.302Z,41.80
2022-07-29T12:07:32.543Z,42.00
2022-07-29T12:10:03.074Z,42.10
2022-07-29T12:12:29.911Z,42.10
2022-07-29T12:14:56.994Z,42.10
2022-07-29T12:17:32.467Z,42.00
2022-07-29T12:20:05.507Z,41.80
2022-07-29T12:22:38.275Z,41.60
2022-07-29T12:25:32.278Z,41.50
2022-07-29T12:28:00.190Z,41.40
2022-07-29T12:30:47.959Z,41.20
2022-07-29T12:33:23.902Z,40.90
2022-07-29T12:36:17.195Z,40.60
2022-07-29T12:38:41.684Z,40.30
2022-07-29T12:41:09.358Z,40.10
2022-07-29T12:43:36.100Z,40.00
2022-07-29T12:46:23.305Z,39.90
2022-07-29T12:48:55.795Z,39.80
2022-07-29T12:51:40.117Z,39.60
2022-07-29T12:54:14.244Z,39.50
2022-07-29T12:56:44.920Z,39.60
2022-07-29T12:59:15.822Z,39.60
2022-07-29T13:01:42.885Z,39.80
2022-07-29T13:04:09.932Z,39.90
2022-07-29T13:06:45.799Z,40.10
2022-07-29T13:09:18.963Z,40.20
2022-07-29T13:11:48.970Z,40.10
2022-07-29T13:14:30.558Z,40.10
2022-07-29T13:17:05.626Z,40.00
2022-07-29T13:19:45.553Z,39.90
2022-07-29T13:22:16.324Z,39.80
2022-07-29T13:24:48.254Z,39.60
2022-07-29T13:27:16.700Z,39.60
2022-07-29T13:29:43.537Z,39.70
2022-07-29T13:32:10.592Z,39.80
2022-07-29T13:34:37.277Z,39.90
2022-07-29T13:37:04.340Z,39.90
2022-07-29T13:39:31.109Z,40.00
2022-07-29T13:41:58.223Z,40.20
2022-07-29T13:44:27.013Z,40.30
2022-07-29T13:46:53.856Z,40.30
2022-07-29T13:49:20.650Z,40.30
2022-07-29T13:51:47.418Z,40.40
2022-07-29T13:54:14.062Z,40.50
2022-07-29T13:56:40.885Z,40.60
2022-07-29T13:59:08.606Z,40.70
2022-07-29T14:01:36.500Z,40.70
2022-07-29T14:04:03.781Z,40.80
2022-07-29T14:06:31.099Z,40.90
2022-07-29T14:08:57.825Z,40.90
2022-07-29T14:11:25.202Z,40.90
2022-07-29T14:13:52.101Z,40.80
2022-07-29T14:16:19.089Z,40.70
2022-07-29T14:18:45.864Z,40.50
2022-07-29T14:21:13.414Z,40.30
2022-07-29T14:23:42.407Z,40.20
2022-07-29T14:26:15.809Z,40.00
2022-07-29T14:28:44.622Z,39.80
2022-07-29T14:31:11.501Z,39.60
2022-07-29T14:33:38.518Z,39.40
2022-07-29T14:36:05.669Z,39.20
2022-07-29T14:38:32.401Z,39.10
2022-07-29T14:40:59.119Z,39.10
2022-07-29T14:43:25.933Z,38.90
2022-07-29T14:45:56.000Z,38.80
2022-07-29T14:48:25.514Z,38.60
2022-07-29T14:50:52.395Z,38.50
2022-07-29T14:53:19.458Z,38.30
2022-07-29T14:55:46.356Z,38.20
2022-07-29T14:58:16.391Z,38.20
2022-07-29T15:00:43.774Z,38.10
2022-07-29T15:03:11.548Z,38.00
2022-07-29T15:05:39.136Z,37.90
2022-07-29T15:08:06.110Z,37.80
2022-07-29T15:10:32.897Z,37.60
2022-07-29T15:12:59.830Z,37.50
2022-07-29T15:15:27.002Z,37.40
2022-07-29T15:17:54.002Z,37.30
2022-07-29T15:20:20.961Z,37.20
2022-07-29T15:22:47.742Z,37.10
2022-07-29T15:25:14.667Z,37.10
2022-07-29T15:27:41.362Z,36.90
2022-07-29T15:30:32.509Z,36.80
2022-07-29T15:33:02.123Z,36.60
2022-07-29T15:35:29.010Z,36.50
2022-07-29T15:37:55.685Z,36.40
2022-07-29T15:40:22.608Z,36.40
2022-07-29T15:42:49.335Z,36.30
2022-07-29T15:45:16.034Z,36.20
2022-07-29T15:47:44.469Z,36.20
2022-07-29T15:50:15.753Z,36.10
2022-07-29T15:52:45.595Z,36.00
2022-07-29T15:55:12.595Z,36.00
2022-07-29T15:57:40.790Z,35.90
2022-07-29T16:00:10.018Z,35.90
2022-07-29T16:02:36.753Z,35.90
2022-07-29T16:05:04.125Z,35.80
2022-07-29T16:07:36.013Z,35.80
2022-07-29T16:10:02.851Z,35.70
2022-07-29T16:12:29.570Z,35.70
2022-07-29T16:14:56.387Z,35.60
2022-07-29T16:17:23.753Z,35.50
2022-07-29T16:19:50.489Z,35.50
2022-07-29T16:22:17.267Z,35.50
2022-07-29T16:24:43.964Z,35.40
2022-07-29T16:27:10.815Z,35.40
2022-07-29T16:29:37.700Z,35.30
2022-07-29T16:32:05.982Z,35.20
2022-07-29T16:34:33.192Z,35.10
2022-07-29T16:37:00.304Z,35.00
2022-07-29T16:39:27.342Z,34.90
2022-07-29T16:41:58.281Z,34.90
2022-07-29T16:44:27.266Z,34.80
2022-07-29T16:46:55.969Z,34.80
2022-07-29T16:49:24.287Z,34.70
2022-07-29T16:51:51.046Z,34.60
2022-07-29T16:54:17.869Z,34.60
2022-07-29T16:56:44.538Z,34.60
2022-07-29T16:59:11.470Z,34.60
2022-07-29T17:01:38.198Z,34.50
2022-07-29T17:04:06.174Z,34.50
2022-07-29T17:06:39.809Z,34.50
2022-07-29T17:09:09.020Z,34.40
2022-07-29T17:11:53.623Z,34.30
2022-07-29T17:14:24.700Z,34.20
2022-07-29T17:17:00.460Z,34.00
2022-07-29T17:19:31.922Z,34.00
2022-07-29T17:22:08.965Z,33.90
2022-07-29T17:24:38.133Z,33.80
2022-07-29T17:27:05.856Z,33.70
2022-07-29T17:29:32.649Z,33.70
2022-07-29T17:31:59.994Z,33.60
2022-07-29T17:34:27.189Z,33.60
2022-07-29T17:36:53.902Z,33.50
2022-07-29T17:39:20.678Z,33.40
2022-07-29T17:41:47.357Z,33.40
2022-07-29T17:44:14.562Z,33.10
2022-07-29T17:46:41.935Z,33.00
2022-07-29T17:49:08.996Z,32.80
2022-07-29T17:51:35.934Z,32.70
2022-07-29T17:54:02.794Z,32.60
2022-07-29T17:56:29.759Z,32.40
2022-07-29T17:58:56.963Z,32.30
2022-07-29T18:01:23.789Z,32.20
2022-07-29T18:03:50.614Z,32.00
2022-07-29T18:06:17.458Z,31.80
2022-07-29T18:08:47.409Z,31.70
2022-07-29T18:11:15.332Z,31.60
2022-07-29T18:13:42.369Z,31.40
2022-07-29T18:16:09.378Z,31.40
2022-07-29T18:18:36.538Z,31.20
2022-07-29T18:21:04.523Z,31.10
2022-07-29T18:23:31.613Z,31.00
2022-07-29T18:25:58.666Z,30.90
2022-07-29T18:28:25.734Z,30.70
2022-07-29T18:30:53.238Z,30.60
2022-07-29T18:33:22.194Z,30.50
2022-07-29T18:35:52.270Z,30.40
2022-07-29T18:38:35.016Z,30.30
2022-07-29T18:41:01.710Z,30.30
2022-07-29T18:43:28.710Z,30.20
2022-07-29T18:45:55.434Z,30.10
2022-07-29T18:48:22.221Z,30.00
2022-07-29T18:50:49.913Z,30.00
2022-07-29T18:53:17.333Z,29.90
2022-07-29T18:55:44.326Z,29.80
2022-07-29T18:58:11.257Z,29.80
2022-07-29T19:00:38.537Z,29.70
2022-07-29T19:03:05.499Z,29.60
2022-07-29T19:05:32.727Z,29.60
2022-07-29T19:07:59.700Z,29.50
2022-07-29T19:10:26.818Z,29.40
2022-07-29T19:12:54.285Z,29.30
2022-07-29T19:15:21.006Z,29.30
2022-07-29T19:17:48.495Z,29.10
2022-07-29T19:20:15.570Z,29.00
2022-07-29T19:22:42.330Z,28.90
2022-07-29T19:25:12.199Z,28.80
2022-07-29T19:27:39.271Z,28.70
2022-07-29T19:30:08.021Z,28.60
2022-07-29T19:32:34.938Z,28.50
2022-07-29T19:35:20.045Z,28.40
2022-07-29T19:37:46.890Z,28.40
2022-07-29T19:40:13.694Z,28.20
2022-07-29T19:42:40.402Z,28.10
2022-07-29T19:45:07.676Z,28.00
2022-07-29T19:47:34.372Z,27.80
2022-07-29T19:50:01.567Z,27.70
2022-07-29T19:52:28.657Z,27.60
2022-07-29T19:54:55.390Z,27.50
2022-07-29T19:57:22.239Z,27.40
2022-07-29T19:59:51.103Z,27.20
2022-07-29T20:02:18.083Z,27.10
2022-07-29T20:04:44.907Z,27.00
2022-07-29T20:07:13.087Z,26.80
2022-07-29T20:09:40.823Z,26.80
2022-07-29T20:12:11.497Z,26.70
2022-07-29T20:14:38.698Z,26.60
2022-07-29T20:17:05.570Z,26.60
2022-07-29T20:19:33.102Z,26.50
2022-07-29T20:22:00.654Z,26.50
2022-07-29T20:24:27.679Z,26.40
2022-07-29T20:26:54.349Z,26.40
2022-07-29T20:29:21.105Z,26.30
2022-07-29T20:31:53.338Z,26.20
2022-07-29T20:34:23.482Z,26.20
2022-07-29T20:36:50.243Z,26.10
2022-07-29T20:39:17.052Z,26.00
2022-07-29T20:41:44.249Z,25.90
2022-07-29T20:44:11.276Z,25.80
2022-07-29T20:46:39.217Z,25.80
2022-07-29T20:49:06.082Z,25.70
2022-07-29T20:51:43.613Z,25.60
2022-07-29T20:54:11.368Z,25.60
2022-07-29T20:56:38.492Z,25.40
2022-07-29T20:59:05.154Z,25.40
2022-07-29T21:01:32.164Z,25.30
2022-07-29T21:04:00.099Z,25.20
2022-07-29T21:06:26.958Z,25.10
2022-07-29T21:08:55.654Z,25.10
2022-07-29T21:11:42.846Z,25.00
2022-07-29T21:14:09.492Z,25.00
2022-07-29T21:16:36.531Z,24.90
2022-07-29T21:19:03.416Z,24.80
2022-07-29T21:21:30.177Z,24.70
2022-07-29T21:23:57.266Z,24.70
2022-07-29T21:26:24.065Z,24.60
2022-07-29T21:28:50.886Z,24.60
2022-07-29T21:31:18.507Z,24.50
2022-07-29T21:33:46.981Z,24.40
2022-07-29T21:36:46.465Z,24.40
2022-07-29T21:39:06.921Z,24.40
2022-07-29T21:41:34.383Z,24.30
2022-07-29T21:44:01.282Z,24.30
2022-07-29T21:46:28.185Z,24.20
2022-07-29T21:48:55.207Z,24.20
2022-07-29T21:51:22.035Z,24.20
2022-07-29T21:53:50.580Z,24.20
2022-07-29T21:56:19.977Z,24.20
2022-07-29T21:58:49.414Z,24.20
2022-07-29T22:01:16.469Z,24.20
2022-07-29T22:03:43.238Z,24.20
2022-07-29T22:06:11.409Z,24.10
2022-07-29T22:08:45.887Z,24.10
2022-07-29T22:11:13.184Z,24.00
2022-07-29T22:13:40.157Z,24.10
2022-07-29T22:16:07.448Z,24.00
2022-07-29T22:18:34.218Z,23.90
2022-07-29T22:21:01.306Z,23.90
2022-07-29T22:23:27.967Z,23.80
2022-07-29T22:25:54.798Z,23.80
2022-07-29T22:28:21.550Z,23.80
2022-07-29T22:30:48.550Z,23.80
2022-07-29T22:33:17.717Z,23.80
2022-07-29T22:35:45.518Z,23.80
2022-07-29T22:38:19.010Z,23.80
2022-07-29T22:40:47.018Z,23.80
2022-07-29T22:43:15.565Z,23.70
2022-07-29T22:45:42.467Z,23.70
2022-07-29T22:48:10.448Z,23.70
2022-07-29T22:50:38.559Z,23.70
2022-07-29T22:53:05.340Z,23.70
2022-07-29T22:55:32.047Z,23.70
2022-07-29T22:57:58.883Z,23.60
2022-07-29T23:00:26.321Z,23.60
2022-07-29T23:02:53.163Z,23.60
2022-07-29T23:05:20.189Z,23.50
2022-07-29T23:07:46.853Z,23.50
2022-07-29T23:10:13.725Z,23.50
2022-07-29T23:12:40.625Z,23.50
2022-07-29T23:15:07.784Z,23.40
2022-07-29T23:17:36.244Z,23.40
2022-07-29T23:20:08.760Z,23.30
2022-07-29T23:22:37.031Z,23.20
2022-07-29T23:25:06.110Z,23.20
2022-07-29T23:27:33.325Z,23.10
2022-07-29T23:30:00.088Z,23.10
2022-07-29T23:32:26.940Z,23.00
2022-07-29T23:34:53.719Z,23.00
2022-07-29T23:37:20.697Z,22.90
2022-07-29T23:39:47.450Z,23.00
2022-07-29T23:42:14.336Z,22.80
2022-07-29T23:44:41.259Z,22.80
2022-07-29T23:47:07.903Z,22.80
2022-07-29T23:49:34.878Z,22.70
2022-07-29T23:52:01.606Z,22.70
2022-07-29T23:54:28.393Z,22.60
2022-07-29T23:56:57.555Z,22.60
2022-07-29T23:59:24.997Z,22.60
